sensor_id;sensor_type;location;lat;lon;timestamp;P1;durP1;ratioP1;P2;durP2;ratioP2
18695;SDS011;22617;43.690;27.956;2023-09-08T00:00:29;4.90;;;3.00;;
18695;SDS011;22617;43.690;27.956;2023-09-08T00:05:33;6.88;;;2.60;;
18695;SDS011;22617;43.690;27.956;2023-09-08T00:10:37;4.28;;;3.00;;
18695;SDS011;22617;43.690;27.956;2023-09-08T00:15:42;5.22;;;3.38;;
18695;SDS011;22617;43.690;27.956;2023-09-08T00:20:46;4.55;;;2.80;;
18695;SDS011;22617;43.690;27.956;2023-09-08T00:25:49;5.00;;;3.15;;
18695;SDS011;22617;43.690;27.956;2023-09-08T00:30:54;4.50;;;3.30;;
18695;SDS011;22617;43.690;27.956;2023-09-08T00:35:58;5.13;;;3.45;;
18695;SDS011;22617;43.690;27.956;2023-09-08T00:41:01;3.60;;;2.83;;
18695;SDS011;22617;43.690;27.956;2023-09-08T00:46:07;5.13;;;3.00;;
18695;SDS011;22617;43.690;27.956;2023-09-08T00:51:11;5.33;;;3.20;;
18695;SDS011;22617;43.690;27.956;2023-09-08T00:56:15;4.90;;;2.70;;
18695;SDS011;22617;43.690;27.956;2023-09-08T01:01:20;5.28;;;3.08;;
18695;SDS011;22617;43.690;27.956;2023-09-08T01:06:24;5.90;;;3.20;;
18695;SDS011;22617;43.690;27.956;2023-09-08T01:11:29;5.10;;;3.30;;
18695;SDS011;22617;43.690;27.956;2023-09-08T01:16:34;5.00;;;2.80;;
18695;SDS011;22617;43.690;27.956;2023-09-08T01:21:48;5.00;;;3.00;;
18695;SDS011;22617;43.690;27.956;2023-09-08T01:27:06;3.85;;;2.70;;
18695;SDS011;22617;43.690;27.956;2023-09-08T01:32:12;4.97;;;3.07;;
18695;SDS011;22617;43.690;27.956;2023-09-08T01:37:16;3.93;;;2.90;;
18695;SDS011;22617;43.690;27.956;2023-09-08T01:42:21;4.55;;;3.08;;
18695;SDS011;22617;43.690;27.956;2023-09-08T01:47:24;3.83;;;2.80;;
18695;SDS011;22617;43.690;27.956;2023-09-08T01:52:28;4.47;;;3.03;;
18695;SDS011;22617;43.690;27.956;2023-09-08T01:57:33;4.22;;;2.83;;
18695;SDS011;22617;43.690;27.956;2023-09-08T02:02:37;7.53;;;3.65;;
18695;SDS011;22617;43.690;27.956;2023-09-08T02:07:41;5.47;;;3.40;;
18695;SDS011;22617;43.690;27.956;2023-09-08T02:12:46;3.75;;;2.88;;
18695;SDS011;22617;43.690;27.956;2023-09-08T02:17:52;4.47;;;3.00;;
18695;SDS011;22617;43.690;27.956;2023-09-08T02:23:16;6.70;;;3.58;;
18695;SDS011;22617;43.690;27.956;2023-09-08T02:28:21;7.63;;;3.33;;
18695;SDS011;22617;43.690;27.956;2023-09-08T02:33:26;5.00;;;3.53;;
18695;SDS011;22617;43.690;27.956;2023-09-08T02:38:31;4.10;;;3.25;;
18695;SDS011;22617;43.690;27.956;2023-09-08T02:43:37;3.83;;;3.00;;
18695;SDS011;22617;43.690;27.956;2023-09-08T02:48:41;7.05;;;3.70;;
18695;SDS011;22617;43.690;27.956;2023-09-08T02:53:45;5.05;;;3.40;;
18695;SDS011;22617;43.690;27.956;2023-09-08T02:58:50;4.70;;;3.45;;
18695;SDS011;22617;43.690;27.956;2023-09-08T03:03:53;5.25;;;2.95;;
18695;SDS011;22617;43.690;27.956;2023-09-08T03:08:59;5.07;;;3.13;;
18695;SDS011;22617;43.690;27.956;2023-09-08T03:14:04;4.68;;;3.65;;
18695;SDS011;22617;43.690;27.956;2023-09-08T03:19:08;5.33;;;3.43;;
18695;SDS011;22617;43.690;27.956;2023-09-08T03:24:12;6.63;;;3.50;;
18695;SDS011;22617;43.690;27.956;2023-09-08T03:29:18;6.50;;;3.37;;
18695;SDS011;22617;43.690;27.956;2023-09-08T03:34:21;4.68;;;3.25;;
18695;SDS011;22617;43.690;27.956;2023-09-08T03:39:25;4.37;;;3.30;;
18695;SDS011;22617;43.690;27.956;2023-09-08T03:44:30;4.40;;;3.13;;
18695;SDS011;22617;43.690;27.956;2023-09-08T03:49:34;4.53;;;3.35;;
18695;SDS011;22617;43.690;27.956;2023-09-08T03:54:37;6.32;;;3.60;;
18695;SDS011;22617;43.690;27.956;2023-09-08T03:59:42;24.27;;;4.72;;
18695;SDS011;22617;43.690;27.956;2023-09-08T04:04:46;8.87;;;3.87;;
18695;SDS011;22617;43.690;27.956;2023-09-08T04:09:50;10.40;;;4.55;;
18695;SDS011;22617;43.690;27.956;2023-09-08T04:14:55;5.70;;;3.60;;
18695;SDS011;22617;43.690;27.956;2023-09-08T04:19:59;10.80;;;4.38;;
18695;SDS011;22617;43.690;27.956;2023-09-08T04:25:03;11.40;;;5.03;;
18695;SDS011;22617;43.690;27.956;2023-09-08T04:30:10;6.90;;;4.18;;
18695;SDS011;22617;43.690;27.956;2023-09-08T04:35:15;9.10;;;4.40;;
18695;SDS011;22617;43.690;27.956;2023-09-08T04:40:19;12.38;;;4.75;;
18695;SDS011;22617;43.690;27.956;2023-09-08T04:45:24;11.88;;;4.20;;
18695;SDS011;22617;43.690;27.956;2023-09-08T04:50:28;9.55;;;4.47;;
18695;SDS011;22617;43.690;27.956;2023-09-08T04:55:32;6.63;;;4.65;;
18695;SDS011;22617;43.690;27.956;2023-09-08T05:00:38;9.50;;;4.40;;
18695;SDS011;22617;43.690;27.956;2023-09-08T05:05:43;12.60;;;4.88;;
18695;SDS011;22617;43.690;27.956;2023-09-08T05:10:48;7.57;;;4.30;;
18695;SDS011;22617;43.690;27.956;2023-09-08T05:15:54;9.60;;;4.82;;
18695;SDS011;22617;43.690;27.956;2023-09-08T05:21:05;6.70;;;4.50;;
18695;SDS011;22617;43.690;27.956;2023-09-08T05:26:09;10.50;;;5.00;;
18695;SDS011;22617;43.690;27.956;2023-09-08T05:31:14;15.73;;;5.38;;
18695;SDS011;22617;43.690;27.956;2023-09-08T05:36:18;9.35;;;4.30;;
18695;SDS011;22617;43.690;27.956;2023-09-08T05:41:22;13.02;;;4.40;;
18695;SDS011;22617;43.690;27.956;2023-09-08T05:46:28;10.27;;;4.70;;
18695;SDS011;22617;43.690;27.956;2023-09-08T05:51:32;10.52;;;5.35;;
18695;SDS011;22617;43.690;27.956;2023-09-08T05:56:36;9.63;;;5.32;;
18695;SDS011;22617;43.690;27.956;2023-09-08T06:01:43;15.10;;;5.47;;
18695;SDS011;22617;43.690;27.956;2023-09-08T06:06:47;10.98;;;5.70;;
18695;SDS011;22617;43.690;27.956;2023-09-08T06:11:51;8.57;;;5.15;;
18695;SDS011;22617;43.690;27.956;2023-09-08T06:16:56;10.38;;;5.60;;
18695;SDS011;22617;43.690;27.956;2023-09-08T06:22:00;10.60;;;5.70;;
18695;SDS011;22617;43.690;27.956;2023-09-08T06:27:05;11.48;;;6.65;;
18695;SDS011;22617;43.690;27.956;2023-09-08T06:32:10;10.68;;;6.10;;
18695;SDS011;22617;43.690;27.956;2023-09-08T06:37:17;10.60;;;5.80;;
18695;SDS011;22617;43.690;27.956;2023-09-08T06:42:22;9.55;;;5.03;;
18695;SDS011;22617;43.690;27.956;2023-09-08T06:47:33;7.97;;;4.90;;
18695;SDS011;22617;43.690;27.956;2023-09-08T06:52:37;19.92;;;8.25;;
18695;SDS011;22617;43.690;27.956;2023-09-08T06:57:41;19.52;;;7.88;;
18695;SDS011;22617;43.690;27.956;2023-09-08T07:02:47;21.02;;;9.15;;
18695;SDS011;22617;43.690;27.956;2023-09-08T07:07:52;8.32;;;3.97;;
18695;SDS011;22617;43.690;27.956;2023-09-08T07:12:56;12.52;;;3.58;;
18695;SDS011;22617;43.690;27.956;2023-09-08T07:18:01;12.80;;;3.72;;
18695;SDS011;22617;43.690;27.956;2023-09-08T07:23:07;11.18;;;3.67;;
18695;SDS011;22617;43.690;27.956;2023-09-08T07:28:11;12.25;;;4.13;;
18695;SDS011;22617;43.690;27.956;2023-09-08T07:33:16;9.88;;;3.53;;
18695;SDS011;22617;43.690;27.956;2023-09-08T07:38:21;9.23;;;3.58;;
18695;SDS011;22617;43.690;27.956;2023-09-08T07:43:27;8.23;;;3.33;;
18695;SDS011;22617;43.690;27.956;2023-09-08T07:48:33;8.27;;;4.20;;
18695;SDS011;22617;43.690;27.956;2023-09-08T07:53:37;11.30;;;3.85;;
18695;SDS011;22617;43.690;27.956;2023-09-08T07:58:41;17.13;;;4.35;;
18695;SDS011;22617;43.690;27.956;2023-09-08T08:03:46;11.13;;;3.72;;
18695;SDS011;22617;43.690;27.956;2023-09-08T08:08:50;7.50;;;3.70;;
18695;SDS011;22617;43.690;27.956;2023-09-08T08:13:54;10.75;;;4.28;;
18695;SDS011;22617;43.690;27.956;2023-09-08T08:19:00;8.55;;;3.50;;
18695;SDS011;22617;43.690;27.956;2023-09-08T08:24:04;10.73;;;3.63;;
18695;SDS011;22617;43.690;27.956;2023-09-08T08:29:08;8.55;;;3.42;;
18695;SDS011;22617;43.690;27.956;2023-09-08T08:34:13;10.77;;;3.28;;
18695;SDS011;22617;43.690;27.956;2023-09-08T08:39:16;11.77;;;4.35;;
18695;SDS011;22617;43.690;27.956;2023-09-08T08:44:20;5.15;;;2.95;;
18695;SDS011;22617;43.690;27.956;2023-09-08T08:49:25;3.85;;;2.75;;
18695;SDS011;22617;43.690;27.956;2023-09-08T08:54:32;9.18;;;2.90;;
18695;SDS011;22617;43.690;27.956;2023-09-08T08:59:37;10.70;;;2.95;;
18695;SDS011;22617;43.690;27.956;2023-09-08T09:04:44;15.50;;;3.22;;
18695;SDS011;22617;43.690;27.956;2023-09-08T09:09:49;5.22;;;2.85;;
18695;SDS011;22617;43.690;27.956;2023-09-08T09:14:53;9.73;;;3.28;;
18695;SDS011;22617;43.690;27.956;2023-09-08T09:25:25;9.40;;;3.20;;
18695;SDS011;22617;43.690;27.956;2023-09-08T09:30:45;5.95;;;2.90;;
18695;SDS011;22617;43.690;27.956;2023-09-08T09:35:51;6.63;;;2.97;;
18695;SDS011;22617;43.690;27.956;2023-09-08T09:40:57;7.80;;;2.97;;
18695;SDS011;22617;43.690;27.956;2023-09-08T09:46:01;5.07;;;2.97;;
18695;SDS011;22617;43.690;27.956;2023-09-08T09:51:15;9.30;;;3.10;;
18695;SDS011;22617;43.690;27.956;2023-09-08T09:56:22;4.13;;;2.22;;
18695;SDS011;22617;43.690;27.956;2023-09-08T10:01:26;6.03;;;2.47;;
18695;SDS011;22617;43.690;27.956;2023-09-08T10:06:31;9.90;;;2.92;;
18695;SDS011;22617;43.690;27.956;2023-09-08T10:11:38;7.22;;;2.60;;
18695;SDS011;22617;43.690;27.956;2023-09-08T10:16:45;9.55;;;2.70;;
18695;SDS011;22617;43.690;27.956;2023-09-08T10:21:51;4.82;;;2.22;;
18695;SDS011;22617;43.690;27.956;2023-09-08T10:27:02;7.70;;;2.75;;
18695;SDS011;22617;43.690;27.956;2023-09-08T10:32:10;5.38;;;2.20;;
18695;SDS011;22617;43.690;27.956;2023-09-08T10:37:18;5.97;;;2.40;;
18695;SDS011;22617;43.690;27.956;2023-09-08T10:42:24;5.38;;;2.50;;
18695;SDS011;22617;43.690;27.956;2023-09-08T10:47:31;5.25;;;2.78;;
18695;SDS011;22617;43.690;27.956;2023-09-08T10:52:38;6.35;;;3.05;;
18695;SDS011;22617;43.690;27.956;2023-09-08T10:57:46;6.82;;;2.95;;
18695;SDS011;22617;43.690;27.956;2023-09-08T11:02:49;5.30;;;2.53;;
18695;SDS011;22617;43.690;27.956;2023-09-08T11:07:53;11.40;;;2.72;;
18695;SDS011;22617;43.690;27.956;2023-09-08T11:12:58;4.93;;;2.40;;
18695;SDS011;22617;43.690;27.956;2023-09-08T11:18:05;5.78;;;2.80;;
18695;SDS011;22617;43.690;27.956;2023-09-08T11:23:09;4.65;;;2.70;;
18695;SDS011;22617;43.690;27.956;2023-09-08T11:28:15;6.68;;;2.55;;
18695;SDS011;22617;43.690;27.956;2023-09-08T11:33:19;6.43;;;2.70;;
18695;SDS011;22617;43.690;27.956;2023-09-08T11:38:27;6.10;;;2.20;;
18695;SDS011;22617;43.690;27.956;2023-09-08T11:43:33;6.28;;;2.38;;
18695;SDS011;22617;43.690;27.956;2023-09-08T11:48:36;8.25;;;2.70;;
18695;SDS011;22617;43.690;27.956;2023-09-08T11:53:41;8.25;;;2.90;;
18695;SDS011;22617;43.690;27.956;2023-09-08T11:58:47;4.20;;;2.38;;
18695;SDS011;22617;43.690;27.956;2023-09-08T12:03:51;6.20;;;2.75;;
18695;SDS011;22617;43.690;27.956;2023-09-08T12:08:56;5.80;;;2.70;;
18695;SDS011;22617;43.690;27.956;2023-09-08T12:14:08;4.90;;;2.67;;
18695;SDS011;22617;43.690;27.956;2023-09-08T12:19:28;7.93;;;2.72;;
18695;SDS011;22617;43.690;27.956;2023-09-08T12:24:56;20.00;;;3.75;;
18695;SDS011;22617;43.690;27.956;2023-09-08T12:30:02;4.28;;;2.60;;
18695;SDS011;22617;43.690;27.956;2023-09-08T12:35:08;6.53;;;2.80;;
18695;SDS011;22617;43.690;27.956;2023-09-08T12:40:12;6.60;;;2.60;;
18695;SDS011;22617;43.690;27.956;2023-09-08T12:45:20;6.07;;;2.65;;
18695;SDS011;22617;43.690;27.956;2023-09-08T12:50:24;7.00;;;2.50;;
18695;SDS011;22617;43.690;27.956;2023-09-08T12:55:27;6.07;;;2.17;;
18695;SDS011;22617;43.690;27.956;2023-09-08T13:00:32;6.30;;;2.28;;
18695;SDS011;22617;43.690;27.956;2023-09-08T13:05:37;4.43;;;2.05;;
18695;SDS011;22617;43.690;27.956;2023-09-08T13:10:42;5.45;;;2.20;;
18695;SDS011;22617;43.690;27.956;2023-09-08T13:15:47;8.20;;;2.85;;
18695;SDS011;22617;43.690;27.956;2023-09-08T13:20:51;7.15;;;2.72;;
18695;SDS011;22617;43.690;27.956;2023-09-08T13:25:55;7.00;;;2.47;;
18695;SDS011;22617;43.690;27.956;2023-09-08T13:31:00;9.25;;;2.90;;
18695;SDS011;22617;43.690;27.956;2023-09-08T13:36:03;11.50;;;3.30;;
18695;SDS011;22617;43.690;27.956;2023-09-08T13:41:07;10.63;;;3.60;;
18695;SDS011;22617;43.690;27.956;2023-09-08T13:46:12;7.55;;;3.08;;
18695;SDS011;22617;43.690;27.956;2023-09-08T13:51:16;7.88;;;2.80;;
18695;SDS011;22617;43.690;27.956;2023-09-08T13:56:22;8.73;;;3.10;;
18695;SDS011;22617;43.690;27.956;2023-09-08T14:01:28;6.40;;;2.88;;
18695;SDS011;22617;43.690;27.956;2023-09-08T14:06:35;7.70;;;2.80;;
18695;SDS011;22617;43.690;27.956;2023-09-08T14:11:50;8.25;;;2.83;;
18695;SDS011;22617;43.690;27.956;2023-09-08T14:16:58;10.35;;;3.15;;
18695;SDS011;22617;43.690;27.956;2023-09-08T14:22:01;10.60;;;2.88;;
18695;SDS011;22617;43.690;27.956;2023-09-08T14:27:05;4.72;;;2.60;;
18695;SDS011;22617;43.690;27.956;2023-09-08T14:32:10;6.95;;;2.58;;
18695;SDS011;22617;43.690;27.956;2023-09-08T14:37:14;6.88;;;2.22;;
18695;SDS011;22617;43.690;27.956;2023-09-08T14:42:18;6.95;;;2.38;;
18695;SDS011;22617;43.690;27.956;2023-09-08T14:47:22;5.15;;;2.42;;
18695;SDS011;22617;43.690;27.956;2023-09-08T14:52:26;4.25;;;2.03;;
18695;SDS011;22617;43.690;27.956;2023-09-08T14:57:29;4.55;;;2.30;;
18695;SDS011;22617;43.690;27.956;2023-09-08T15:02:35;8.02;;;2.42;;
18695;SDS011;22617;43.690;27.956;2023-09-08T15:07:38;7.35;;;2.20;;
18695;SDS011;22617;43.690;27.956;2023-09-08T15:12:42;5.95;;;2.20;;
18695;SDS011;22617;43.690;27.956;2023-09-08T15:17:47;4.45;;;2.10;;
18695;SDS011;22617;43.690;27.956;2023-09-08T15:22:51;3.13;;;2.05;;
18695;SDS011;22617;43.690;27.956;2023-09-08T15:27:54;5.43;;;1.80;;
18695;SDS011;22617;43.690;27.956;2023-09-08T15:33:02;3.03;;;1.70;;
18695;SDS011;22617;43.690;27.956;2023-09-08T15:38:08;3.95;;;1.60;;
18695;SDS011;22617;43.690;27.956;2023-09-08T15:43:12;4.32;;;1.58;;
18695;SDS011;22617;43.690;27.956;2023-09-08T15:48:17;4.40;;;1.60;;
18695;SDS011;22617;43.690;27.956;2023-09-08T15:53:20;4.47;;;1.50;;
18695;SDS011;22617;43.690;27.956;2023-09-08T15:58:24;4.43;;;1.58;;
18695;SDS011;22617;43.690;27.956;2023-09-08T16:03:29;4.15;;;1.52;;
18695;SDS011;22617;43.690;27.956;2023-09-08T16:08:33;4.13;;;1.48;;
18695;SDS011;22617;43.690;27.956;2023-09-08T16:13:36;2.65;;;1.35;;
18695;SDS011;22617;43.690;27.956;2023-09-08T16:18:41;4.65;;;1.75;;
18695;SDS011;22617;43.690;27.956;2023-09-08T16:23:45;4.90;;;2.17;;
18695;SDS011;22617;43.690;27.956;2023-09-08T16:28:49;5.35;;;1.95;;
18695;SDS011;22617;43.690;27.956;2023-09-08T16:33:54;7.20;;;2.55;;
18695;SDS011;22617;43.690;27.956;2023-09-08T16:38:57;5.68;;;1.80;;
18695;SDS011;22617;43.690;27.956;2023-09-08T16:44:01;4.75;;;1.83;;
18695;SDS011;22617;43.690;27.956;2023-09-08T16:49:06;4.50;;;2.08;;
18695;SDS011;22617;43.690;27.956;2023-09-08T16:54:09;7.72;;;1.98;;
18695;SDS011;22617;43.690;27.956;2023-09-08T16:59:14;6.90;;;1.90;;
18695;SDS011;22617;43.690;27.956;2023-09-08T17:04:19;4.50;;;1.85;;
18695;SDS011;22617;43.690;27.956;2023-09-08T17:09:23;5.10;;;2.38;;
18695;SDS011;22617;43.690;27.956;2023-09-08T17:14:27;6.38;;;3.20;;
18695;SDS011;22617;43.690;27.956;2023-09-08T17:19:33;3.63;;;1.73;;
18695;SDS011;22617;43.690;27.956;2023-09-08T17:24:36;4.72;;;2.45;;
18695;SDS011;22617;43.690;27.956;2023-09-08T17:29:40;6.80;;;2.22;;
18695;SDS011;22617;43.690;27.956;2023-09-08T17:34:45;3.33;;;2.10;;
18695;SDS011;22617;43.690;27.956;2023-09-08T17:39:51;2.60;;;1.73;;
18695;SDS011;22617;43.690;27.956;2023-09-08T17:44:54;6.05;;;2.17;;
18695;SDS011;22617;43.690;27.956;2023-09-08T17:49:59;6.30;;;1.95;;
18695;SDS011;22617;43.690;27.956;2023-09-08T17:55:04;5.50;;;1.85;;
18695;SDS011;22617;43.690;27.956;2023-09-08T18:00:10;4.10;;;2.05;;
18695;SDS011;22617;43.690;27.956;2023-09-08T18:05:17;5.28;;;2.30;;
18695;SDS011;22617;43.690;27.956;2023-09-08T18:10:22;5.63;;;2.13;;
18695;SDS011;22617;43.690;27.956;2023-09-08T18:15:26;4.43;;;2.00;;
18695;SDS011;22617;43.690;27.956;2023-09-08T18:20:32;3.80;;;2.17;;
18695;SDS011;22617;43.690;27.956;2023-09-08T18:25:36;4.43;;;2.10;;
18695;SDS011;22617;43.690;27.956;2023-09-08T18:30:40;4.22;;;1.90;;
18695;SDS011;22617;43.690;27.956;2023-09-08T18:35:45;5.22;;;2.03;;
18695;SDS011;22617;43.690;27.956;2023-09-08T18:40:53;8.10;;;2.10;;
18695;SDS011;22617;43.690;27.956;2023-09-08T18:46:00;10.25;;;2.60;;
18695;SDS011;22617;43.690;27.956;2023-09-08T18:51:05;6.50;;;2.58;;
18695;SDS011;22617;43.690;27.956;2023-09-08T18:56:09;8.35;;;2.80;;
18695;SDS011;22617;43.690;27.956;2023-09-08T19:01:15;5.28;;;2.05;;
18695;SDS011;22617;43.690;27.956;2023-09-08T19:06:21;4.32;;;2.45;;
18695;SDS011;22617;43.690;27.956;2023-09-08T19:11:25;5.85;;;2.65;;
18695;SDS011;22617;43.690;27.956;2023-09-08T19:16:30;8.17;;;2.40;;
18695;SDS011;22617;43.690;27.956;2023-09-08T19:21:36;11.33;;;3.13;;
18695;SDS011;22617;43.690;27.956;2023-09-08T19:26:40;4.63;;;2.20;;
18695;SDS011;22617;43.690;27.956;2023-09-08T19:31:43;5.30;;;1.87;;
18695;SDS011;22617;43.690;27.956;2023-09-08T19:36:48;4.38;;;2.50;;
18695;SDS011;22617;43.690;27.956;2023-09-08T19:41:52;4.37;;;2.00;;
18695;SDS011;22617;43.690;27.956;2023-09-08T19:46:55;5.33;;;2.27;;
18695;SDS011;22617;43.690;27.956;2023-09-08T19:52:01;4.13;;;2.10;;
18695;SDS011;22617;43.690;27.956;2023-09-08T19:57:04;6.57;;;3.00;;
18695;SDS011;22617;43.690;27.956;2023-09-08T20:02:08;8.63;;;2.60;;
18695;SDS011;22617;43.690;27.956;2023-09-08T20:07:13;7.63;;;2.53;;
18695;SDS011;22617;43.690;27.956;2023-09-08T20:12:17;5.35;;;2.65;;
18695;SDS011;22617;43.690;27.956;2023-09-08T20:17:20;6.30;;;2.40;;
18695;SDS011;22617;43.690;27.956;2023-09-08T20:22:25;6.03;;;2.57;;
18695;SDS011;22617;43.690;27.956;2023-09-08T20:27:30;5.43;;;2.13;;
18695;SDS011;22617;43.690;27.956;2023-09-08T20:32:34;6.10;;;2.47;;
18695;SDS011;22617;43.690;27.956;2023-09-08T20:37:39;5.07;;;2.20;;
18695;SDS011;22617;43.690;27.956;2023-09-08T20:42:43;5.50;;;2.30;;
18695;SDS011;22617;43.690;27.956;2023-09-08T20:47:46;5.50;;;2.83;;
18695;SDS011;22617;43.690;27.956;2023-09-08T20:52:52;4.33;;;2.23;;
18695;SDS011;22617;43.690;27.956;2023-09-08T20:57:55;4.10;;;2.17;;
18695;SDS011;22617;43.690;27.956;2023-09-08T21:02:59;4.33;;;2.23;;
18695;SDS011;22617;43.690;27.956;2023-09-08T21:08:06;5.30;;;2.00;;
18695;SDS011;22617;43.690;27.956;2023-09-08T21:13:09;6.47;;;2.43;;
18695;SDS011;22617;43.690;27.956;2023-09-08T21:18:13;7.83;;;2.40;;
18695;SDS011;22617;43.690;27.956;2023-09-08T21:23:18;3.60;;;2.10;;
18695;SDS011;22617;43.690;27.956;2023-09-08T21:28:21;4.40;;;2.03;;
18695;SDS011;22617;43.690;27.956;2023-09-08T21:33:25;7.27;;;2.60;;
18695;SDS011;22617;43.690;27.956;2023-09-08T21:38:30;5.30;;;2.20;;
18695;SDS011;22617;43.690;27.956;2023-09-08T21:43:33;6.80;;;2.87;;
18695;SDS011;22617;43.690;27.956;2023-09-08T21:48:37;5.50;;;2.63;;
18695;SDS011;22617;43.690;27.956;2023-09-08T21:53:43;5.50;;;2.53;;
18695;SDS011;22617;43.690;27.956;2023-09-08T21:58:46;18.63;;;4.07;;
18695;SDS011;22617;43.690;27.956;2023-09-08T22:03:50;16.20;;;3.70;;
18695;SDS011;22617;43.690;27.956;2023-09-08T22:08:55;16.57;;;3.70;;
18695;SDS011;22617;43.690;27.956;2023-09-08T22:13:59;4.70;;;2.40;;
18695;SDS011;22617;43.690;27.956;2023-09-08T22:19:02;7.00;;;2.53;;
18695;SDS011;22617;43.690;27.956;2023-09-08T22:24:08;8.23;;;2.80;;
18695;SDS011;22617;43.690;27.956;2023-09-08T22:29:12;7.50;;;2.63;;
18695;SDS011;22617;43.690;27.956;2023-09-08T22:34:15;9.00;;;3.03;;
18695;SDS011;22617;43.690;27.956;2023-09-08T22:39:23;4.60;;;2.93;;
18695;SDS011;22617;43.690;27.956;2023-09-08T22:44:27;5.67;;;2.50;;
18695;SDS011;22617;43.690;27.956;2023-09-08T22:49:32;5.20;;;2.50;;
18695;SDS011;22617;43.690;27.956;2023-09-08T22:54:38;5.90;;;2.10;;
18695;SDS011;22617;43.690;27.956;2023-09-08T22:59:41;9.10;;;2.93;;
18695;SDS011;22617;43.690;27.956;2023-09-08T23:04:45;4.13;;;2.60;;
18695;SDS011;22617;43.690;27.956;2023-09-08T23:09:50;5.20;;;2.60;;
18695;SDS011;22617;43.690;27.956;2023-09-08T23:14:55;4.63;;;2.70;;
18695;SDS011;22617;43.690;27.956;2023-09-08T23:19:59;4.80;;;2.67;;
18695;SDS011;22617;43.690;27.956;2023-09-08T23:25:06;7.43;;;2.77;;
18695;SDS011;22617;43.690;27.956;2023-09-08T23:30:12;3.90;;;2.30;;
18695;SDS011;22617;43.690;27.956;2023-09-08T23:35:16;5.43;;;2.53;;
18695;SDS011;22617;43.690;27.956;2023-09-08T23:40:21;8.30;;;2.80;;
18695;SDS011;22617;43.690;27.956;2023-09-08T23:45:24;6.73;;;2.90;;
18695;SDS011;22617;43.690;27.956;2023-09-08T23:50:47;4.97;;;2.30;;
18695;SDS011;22617;43.690;27.956;2023-09-08T23:55:54;5.47;;;2.50;;
